Time;durP1;ratioP1;P1;durP2;ratioP2;P2;SDS_P1;SDS_P2;PMS_P1;PMS_P2;Temp;Humidity;BMP_temperature;BMP_pressure;BME280_temperature;BME280_humidity;BME280_pressure;Samples;Min_cycle;Max_cycle;Signal;HPM_P1;HPM_P2
2022/12/28 00:01:29;;;;;;;8.30;3.72;;;7.10;53.40;;;;;;4993496;28;20504;-73
2022/12/28 00:03:57;;;;;;;8.80;3.30;;;7.10;53.30;;;;;;4993665;28;20452;-74
2022/12/28 00:06:23;;;;;;;9.65;3.33;;;7.00;53.40;;;;;;4993822;28;20883;-74
2022/12/28 00:08:52;;;;;;;12.35;4.50;;;7.00;53.90;;;;;;5008681;28;20417;-71
2022/12/28 00:11:19;;;;;;;9.30;3.72;;;7.20;53.60;;;;;;4992980;28;20502;-73
2022/12/28 00:13:45;;;;;;;11.30;3.15;;;7.20;54.40;;;;;;4993639;28;20386;-72
2022/12/28 00:16:17;;;;;;;8.77;2.78;;;7.20;52.50;;;;;;4994091;28;20800;-71
2022/12/28 00:18:43;;;;;;;12.57;3.38;;;7.20;53.30;;;;;;4995359;28;20481;-74
2022/12/28 00:21:09;;;;;;;9.60;4.43;;;7.30;53.20;;;;;;4995052;28;20518;-75
2022/12/28 00:23:34;;;;;;;8.00;3.90;;;7.40;53.60;;;;;;4992691;28;20481;-73
2022/12/28 00:26:09;;;;;;;9.03;2.87;;;7.30;53.90;;;;;;4993282;28;20405;-75
2022/12/28 00:28:35;;;;;;;11.50;3.75;;;7.30;55.10;;;;;;4991817;28;20394;-74
2022/12/28 00:31:00;;;;;;;9.18;4.15;;;7.30;57.10;;;;;;4992310;28;20473;-72
2022/12/28 00:33:26;;;;;;;7.20;3.60;;;7.20;59.80;;;;;;4993249;28;20784;-74
2022/12/28 00:35:56;;;;;;;9.23;3.70;;;7.20;60.50;;;;;;4993493;28;20386;-73
2022/12/28 00:38:22;;;;;;;10.73;4.50;;;7.10;62.80;;;;;;4992914;28;20444;-74
2022/12/28 00:40:47;;;;;;;9.15;3.88;;;7.10;65.50;;;;;;4993263;28;20438;-73
2022/12/28 00:43:13;;;;;;;9.40;3.40;;;7.00;66.80;;;;;;5008969;28;20386;-73
2022/12/28 00:45:42;;;;;;;8.63;3.92;;;7.00;66.70;;;;;;5008702;28;20391;-75
2022/12/28 00:48:07;;;;;;;7.30;3.53;;;7.00;68.30;;;;;;5008542;28;20394;-72
2022/12/28 00:50:33;;;;;;;9.70;3.28;;;7.00;68.00;;;;;;5001121;28;20391;-72
2022/12/28 00:52:58;;;;;;;9.93;3.70;;;7.00;66.10;;;;;;5008617;28;20417;-74
2022/12/28 00:55:24;;;;;;;7.70;3.20;;;7.10;66.10;;;;;;4993581;28;20440;-73
2022/12/28 00:57:49;;;;;;;11.47;3.90;;;7.00;66.20;;;;;;4993839;28;20454;-73
2022/12/28 01:00:15;;;;;;;8.97;3.30;;;7.00;67.50;;;;;;4992405;28;20468;-71
2022/12/28 01:02:41;;;;;;;8.45;3.63;;;7.00;66.70;;;;;;4992473;28;20780;-74
2022/12/28 01:05:07;;;;;;;14.40;3.72;;;7.10;67.30;;;;;;4991479;28;20731;-73
2022/12/28 01:07:32;;;;;;;10.00;4.35;;;7.10;68.90;;;;;;4992671;28;20413;-74
2022/12/28 01:09:58;;;;;;;13.03;4.07;;;7.20;69.90;;;;;;4993328;28;20481;-75
2022/12/28 01:12:23;;;;;;;9.55;4.25;;;7.10;70.30;;;;;;4992142;28;20391;-73
2022/12/28 01:14:49;;;;;;;11.43;3.92;;;7.10;73.00;;;;;;4993419;28;20452;-74
2022/12/28 01:17:15;;;;;;;10.15;4.20;;;7.00;73.90;;;;;;5009463;28;20393;-73
2022/12/28 01:19:40;;;;;;;7.03;4.10;;;7.00;74.80;;;;;;4997283;28;20810;-75
2022/12/28 01:22:07;;;;;;;12.32;4.10;;;7.00;75.10;;;;;;4994456;28;20387;-73
2022/12/28 01:24:33;;;;;;;7.20;3.50;;;7.10;75.30;;;;;;4996731;28;20437;-73
2022/12/28 01:26:59;;;;;;;9.98;4.00;;;7.10;75.40;;;;;;4996820;28;20835;-73
2022/12/28 01:29:24;;;;;;;9.52;3.45;;;7.10;75.30;;;;;;4992658;28;20488;-73
2022/12/28 01:31:50;;;;;;;9.98;4.13;;;7.10;75.50;;;;;;4991644;28;20394;-73
2022/12/28 01:34:15;;;;;;;11.02;4.78;;;7.10;76.40;;;;;;4992216;28;20390;-72
2022/12/28 01:36:41;;;;;;;9.73;3.90;;;7.10;77.00;;;;;;4991754;28;20433;-71
2022/12/28 01:39:06;;;;;;;14.77;3.97;;;7.10;77.10;;;;;;4991707;28;20386;-72
2022/12/28 01:41:37;;;;;;;9.57;4.35;;;7.00;78.50;;;;;;4991351;28;20390;-73
2022/12/28 01:44:02;;;;;;;10.45;4.43;;;7.00;78.20;;;;;;4990850;28;20477;-73
2022/12/28 01:46:36;;;;;;;9.20;4.20;;;7.20;77.00;;;;;;4991923;28;20469;-73
2022/12/28 01:49:06;;;;;;;10.32;4.53;;;7.20;76.90;;;;;;4992054;28;20390;-72
2022/12/28 01:51:40;;;;;;;8.18;3.65;;;7.20;76.40;;;;;;4991278;28;20405;-71
2022/12/28 01:54:05;;;;;;;9.82;4.20;;;7.20;77.30;;;;;;4991774;28;20765;-72
2022/12/28 01:56:31;;;;;;;8.33;4.23;;;7.20;78.80;;;;;;4991579;28;20409;-72
2022/12/28 01:58:57;;;;;;;8.20;4.07;;;7.30;77.60;;;;;;4991540;28;20410;-73
2022/12/28 02:01:23;;;;;;;8.38;4.22;;;7.30;77.10;;;;;;4990364;28;20818;-72
2022/12/28 02:03:48;;;;;;;8.07;4.18;;;7.30;77.90;;;;;;4994293;28;20445;-73
2022/12/28 02:06:14;;;;;;;8.80;4.32;;;7.30;77.70;;;;;;4994997;28;20386;-72
2022/12/28 02:08:58;;;;;;;6.97;3.95;;;7.50;76.00;;;;;;4994988;28;20394;-72
2022/12/28 02:11:24;;;;;;;6.25;2.80;;;7.40;78.80;;;;;;4994866;28;20872;-71
2022/12/28 02:13:51;;;;;;;7.72;4.38;;;7.50;76.90;;;;;;4995637;28;20398;-71
2022/12/28 02:16:17;;;;;;;9.60;4.33;;;7.50;76.90;;;;;;4996902;28;20465;-72
2022/12/28 02:18:45;;;;;;;9.73;3.38;;;7.50;76.50;;;;;;4999074;28;20398;-72
2022/12/28 02:21:45;;;;;;;7.28;3.17;;;7.50;76.10;;;;;;5006254;28;20441;-72
2022/12/28 02:24:35;;;;;;;8.07;3.60;;;7.50;75.50;;;;;;5012350;28;20382;-71
2022/12/28 02:27:22;;;;;;;9.43;4.65;;;7.50;74.80;;;;;;4993827;28;20875;-73
2022/12/28 02:30:08;;;;;;;4.68;2.70;;;7.70;75.30;;;;;;4993527;28;20386;-72
2022/12/28 02:33:08;;;;;;;4.75;2.80;;;7.70;72.60;;;;;;4992771;28;20398;-72
2022/12/28 02:35:56;;;;;;;7.85;2.90;;;7.80;72.20;;;;;;4993604;28;20469;-73
2022/12/28 02:38:33;;;;;;;6.00;2.95;;;7.80;71.10;;;;;;4993254;28;20386;-71
2022/12/28 02:41:05;;;;;;;7.87;3.07;;;7.90;71.30;;;;;;4992796;28;20442;-72
2022/12/28 02:43:32;;;;;;;6.53;3.17;;;7.90;70.90;;;;;;4993384;28;20398;-73
2022/12/28 02:52:11;;;;;;;8.40;3.47;;;8.00;69.30;;;;;;4992624;28;20398;-72
2022/12/28 03:00:38;;;;;;;7.55;2.80;;;8.00;67.60;;;;;;5088377;27;20360;-72
2022/12/28 03:03:30;;;;;;;6.90;3.50;;;8.00;69.50;;;;;;5087773;28;20387;-71
2022/12/28 03:09:18;;;;;;;7.60;3.27;;;8.10;68.80;;;;;;5088199;28;20378;-72
2022/12/28 03:12:00;;;;;;;9.48;3.53;;;8.10;69.50;;;;;;5087880;28;20371;-73
2022/12/28 03:14:31;;;;;;;8.60;3.33;;;8.10;69.80;;;;;;5088264;28;20367;-74
2022/12/28 03:31:06;;;;;;;5.65;3.10;;;8.30;68.20;;;;;;5087299;28;20760;-73
2022/12/28 03:33:42;;;;;;;6.90;2.60;;;8.30;67.40;;;;;;5087672;28;20375;-74
2022/12/28 03:36:14;;;;;;;6.65;3.00;;;8.30;68.80;;;;;;5088031;28;20382;-74
2022/12/28 03:39:12;;;;;;;4.80;2.60;;;8.40;66.30;;;;;;5087440;28;20498;-73
2022/12/28 03:41:46;;;;;;;5.70;2.80;;;8.40;65.70;;;;;;5086290;28;20385;-73
2022/12/28 03:44:31;;;;;;;4.70;2.90;;;8.40;66.20;;;;;;5087617;28;20378;-73
2022/12/28 03:47:08;;;;;;;4.30;2.53;;;8.50;65.00;;;;;;5087861;28;20461;-73
2022/12/28 03:49:34;;;;;;;6.60;3.70;;;8.40;66.50;;;;;;5087174;28;20383;-74
2022/12/28 03:52:00;;;;;;;6.90;3.53;;;8.60;65.30;;;;;;5086902;28;20390;-74
2022/12/28 03:54:26;;;;;;;4.20;2.60;;;8.60;63.80;;;;;;5087581;28;20418;-73
2022/12/28 03:56:51;;;;;;;6.30;2.53;;;8.60;62.60;;;;;;5087974;28;20472;-73
2022/12/28 03:59:17;;;;;;;4.00;2.30;;;8.60;63.00;;;;;;5098572;28;20858;-74
2022/12/28 04:01:43;;;;;;;6.35;2.40;;;8.60;64.00;;;;;;5107968;28;20381;-73
2022/12/28 04:04:09;;;;;;;3.20;2.30;;;8.60;62.90;;;;;;5107924;28;20397;-73
2022/12/28 04:06:35;;;;;;;4.50;2.40;;;8.60;62.60;;;;;;5108331;28;20382;-72
2022/12/28 04:09:01;;;;;;;6.05;2.70;;;8.60;62.50;;;;;;5109978;28;20385;-73
2022/12/28 04:11:26;;;;;;;5.07;2.40;;;8.70;63.70;;;;;;5099114;28;20460;-72
2022/12/28 04:13:52;;;;;;;3.87;2.20;;;8.70;62.60;;;;;;5096259;28;20431;-73
2022/12/28 04:16:18;;;;;;;4.77;2.50;;;8.70;62.20;;;;;;5099559;28;20782;-73
2022/12/28 04:18:43;;;;;;;6.30;2.40;;;8.60;62.50;;;;;;5100675;28;20401;-73
2022/12/28 04:21:11;;;;;;;2.47;1.80;;;8.70;63.20;;;;;;5096158;28;20386;-74
2022/12/28 04:23:36;;;;;;;3.83;2.00;;;8.70;62.10;;;;;;5093460;28;20377;-74
2022/12/28 04:26:07;;;;;;;4.32;2.00;;;8.60;62.70;;;;;;5093686;28;20919;-74
2022/12/28 04:28:34;;;;;;;6.20;2.20;;;8.70;63.50;;;;;;5093538;28;20393;-74
2022/12/28 04:31:01;;;;;;;3.90;2.15;;;8.60;64.10;;;;;;5092840;28;20431;-74
2022/12/28 04:33:27;;;;;;;4.25;2.00;;;8.60;63.50;;;;;;5093806;28;20397;-74
2022/12/28 04:35:53;;;;;;;5.40;2.53;;;8.80;63.30;;;;;;5094434;28;20384;-74
2022/12/28 04:38:19;;;;;;;4.07;2.10;;;8.80;63.00;;;;;;5094315;28;20382;-73
2022/12/28 04:40:45;;;;;;;5.95;2.15;;;8.80;61.80;;;;;;5094434;28;20726;-74
2022/12/28 04:43:11;;;;;;;3.20;2.00;;;8.80;61.90;;;;;;5093836;28;20370;-73
2022/12/28 04:45:36;;;;;;;4.45;2.10;;;8.90;62.30;;;;;;5094368;28;20413;-72
2022/12/28 04:48:02;;;;;;;4.35;2.00;;;8.90;62.70;;;;;;5094468;28;20422;-73
2022/12/28 04:50:28;;;;;;;5.30;2.33;;;9.00;61.40;;;;;;5096001;28;20427;-74
2022/12/28 04:52:54;;;;;;;5.47;2.28;;;9.00;61.50;;;;;;5097054;28;20434;-74
2022/12/28 04:55:19;;;;;;;4.28;2.40;;;9.00;61.50;;;;;;5106273;28;20386;-73
2022/12/28 04:57:46;;;;;;;5.90;2.10;;;9.00;61.20;;;;;;5104099;28;20386;-73
2022/12/28 05:00:12;;;;;;;5.05;2.00;;;9.20;61.10;;;;;;5092900;28;20428;-74
2022/12/28 05:02:38;;;;;;;3.83;2.42;;;9.20;61.10;;;;;;5092249;28;20382;-74
2022/12/28 05:05:04;;;;;;;3.10;2.20;;;9.20;61.20;;;;;;5092810;28;20382;-74
2022/12/28 05:07:30;;;;;;;2.50;2.10;;;9.20;60.50;;;;;;5092664;28;20751;-72
2022/12/28 05:09:56;;;;;;;3.92;2.15;;;9.30;59.90;;;;;;5093044;28;20484;-73
2022/12/28 05:12:21;;;;;;;3.70;1.90;;;9.40;58.80;;;;;;5092115;28;20378;-72
2022/12/28 05:14:47;;;;;;;3.20;2.13;;;9.60;59.00;;;;;;5092869;28;20377;-73
2022/12/28 05:17:13;;;;;;;3.60;2.00;;;9.50;59.50;;;;;;5092659;28;20382;-72
2022/12/28 05:19:38;;;;;;;3.65;2.00;;;9.60;58.20;;;;;;5092721;28;20404;-73
2022/12/28 05:22:04;;;;;;;2.30;1.80;;;9.60;58.70;;;;;;5091084;28;20443;-72
2022/12/28 05:24:30;;;;;;;2.15;1.95;;;9.60;58.00;;;;;;5092624;28;20456;-72
2022/12/28 05:26:55;;;;;;;5.03;2.30;;;9.60;58.00;;;;;;5092510;28;20386;-72
2022/12/28 05:29:21;;;;;;;5.10;2.20;;;9.70;57.60;;;;;;5092766;28;20385;-73
2022/12/28 05:31:47;;;;;;;4.10;2.00;;;9.70;57.80;;;;;;5092186;28;20444;-73
2022/12/28 05:34:12;;;;;;;3.10;2.15;;;9.70;56.80;;;;;;5091252;28;20385;-72
2022/12/28 05:36:38;;;;;;;4.53;1.92;;;9.80;56.60;;;;;;5092055;28;20451;-72
2022/12/28 05:39:04;;;;;;;7.25;2.03;;;9.80;56.60;;;;;;5092720;28;20442;-72
2022/12/28 05:41:30;;;;;;;3.30;1.80;;;9.80;56.80;;;;;;5090509;28;20417;-72
2022/12/28 05:43:58;;;;;;;3.70;2.20;;;9.80;57.20;;;;;;5092260;28;20374;-73
2022/12/28 05:46:29;;;;;;;5.53;1.95;;;9.80;57.10;;;;;;5092485;28;20524;-74
2022/12/28 05:48:55;;;;;;;6.50;2.00;;;9.90;57.10;;;;;;5091988;28;20927;-72
2022/12/28 05:51:22;;;;;;;7.13;2.20;;;9.90;56.60;;;;;;5091598;28;20468;-73
2022/12/28 05:53:48;;;;;;;4.50;1.75;;;9.90;56.20;;;;;;5092258;28;20883;-74
2022/12/28 05:56:18;;;;;;;5.30;1.65;;;9.90;56.80;;;;;;5092341;28;20885;-74
2022/12/28 05:58:45;;;;;;;4.63;1.83;;;9.90;57.20;;;;;;5091624;28;20410;-73
2022/12/28 06:01:13;;;;;;;3.30;1.80;;;10.00;57.10;;;;;;5091478;28;20910;-73
2022/12/28 06:03:39;;;;;;;7.90;2.40;;;9.90;56.90;;;;;;5092053;28;20394;-73
2022/12/28 06:06:10;;;;;;;4.22;2.08;;;9.90;57.00;;;;;;5092190;28;20381;-74
2022/12/28 06:08:37;;;;;;;4.15;1.90;;;10.00;57.20;;;;;;5090818;28;20401;-74
2022/12/28 06:11:05;;;;;;;3.88;1.75;;;10.00;56.80;;;;;;5091665;28;20386;-74
2022/12/28 06:13:31;;;;;;;2.90;2.00;;;10.00;56.50;;;;;;5091994;28;20382;-74
2022/12/28 06:15:57;;;;;;;2.75;1.60;;;10.00;56.60;;;;;;5092172;28;20924;-74
2022/12/28 06:18:23;;;;;;;7.00;2.13;;;10.00;56.40;;;;;;5092065;28;20390;-74
2022/12/28 06:20:49;;;;;;;7.53;1.65;;;10.00;57.00;;;;;;5091553;28;20746;-72
2022/12/28 06:23:15;;;;;;;4.45;1.60;;;10.00;57.30;;;;;;5091233;28;20382;-74
2022/12/28 06:25:40;;;;;;;5.90;1.70;;;10.00;57.30;;;;;;5091785;28;20788;-75
2022/12/28 06:28:06;;;;;;;3.47;1.70;;;10.10;56.60;;;;;;5091412;28;20387;-73
2022/12/28 06:30:31;;;;;;;4.67;1.80;;;10.10;56.20;;;;;;5091511;28;20478;-72
2022/12/28 06:32:57;;;;;;;3.50;1.80;;;10.10;56.20;;;;;;5090991;28;20389;-73
2022/12/28 06:35:23;;;;;;;3.53;1.67;;;10.10;57.30;;;;;;5098593;28;20394;-71
2022/12/28 06:37:49;;;;;;;5.35;1.70;;;10.10;57.50;;;;;;5109169;28;20407;-72
2022/12/28 06:40:14;;;;;;;4.20;1.50;;;10.00;57.70;;;;;;5101701;28;20419;-73
2022/12/28 06:42:40;;;;;;;3.47;1.60;;;10.10;57.90;;;;;;5090886;28;20404;-73
2022/12/28 06:45:07;;;;;;;4.15;2.00;;;10.10;57.70;;;;;;5091644;28;20386;-73
2022/12/28 06:47:34;;;;;;;2.95;1.88;;;10.20;58.10;;;;;;5091216;28;20410;-73
2022/12/28 06:50:00;;;;;;;5.00;1.73;;;10.10;58.80;;;;;;5089911;28;20890;-73
2022/12/28 06:52:26;;;;;;;4.63;1.87;;;10.10;60.80;;;;;;5090773;28;20378;-74
2022/12/28 06:54:51;;;;;;;4.60;1.80;;;10.10;61.40;;;;;;5090294;28;20510;-73
2022/12/28 06:57:17;;;;;;;7.27;2.10;;;10.20;61.00;;;;;;5090821;28;20889;-73
2022/12/28 06:59:42;;;;;;;4.00;1.60;;;10.10;61.30;;;;;;5092550;28;20448;-73
2022/12/28 07:02:08;;;;;;;5.20;2.00;;;10.10;61.10;;;;;;5093068;28;20385;-73
2022/12/28 07:04:34;;;;;;;4.70;2.10;;;10.10;62.00;;;;;;5096029;28;20483;-72
2022/12/28 07:06:59;;;;;;;5.57;2.13;;;10.10;62.30;;;;;;5094373;28;20469;-73
2022/12/28 07:09:25;;;;;;;3.20;1.60;;;10.00;62.90;;;;;;5096806;28;20432;-73
2022/12/28 07:11:51;;;;;;;4.80;2.00;;;10.00;63.20;;;;;;5097249;28;20394;-73
2022/12/28 07:14:17;;;;;;;6.53;2.30;;;10.00;63.60;;;;;;5096767;28;20413;-73
2022/12/28 07:16:43;;;;;;;3.92;1.58;;;10.00;63.40;;;;;;5091561;28;20442;-74
2022/12/28 07:19:09;;;;;;;7.70;1.50;;;10.10;63.00;;;;;;5091597;28;20402;-73
2022/12/28 07:21:37;;;;;;;5.00;1.60;;;10.10;63.10;;;;;;5092044;28;20536;-73
2022/12/28 07:24:04;;;;;;;2.45;1.73;;;10.10;62.90;;;;;;5090988;28;20428;-73
2022/12/28 07:26:31;;;;;;;5.93;1.90;;;10.10;62.90;;;;;;5098305;28;20394;-72
2022/12/28 07:28:59;;;;;;;5.93;2.05;;;10.10;62.90;;;;;;5109531;28;20382;-71
2022/12/28 07:31:28;;;;;;;3.17;1.40;;;10.20;62.70;;;;;;5097050;28;20386;-73
2022/12/28 07:33:55;;;;;;;6.07;1.40;;;10.10;62.90;;;;;;5091483;28;20400;-73
2022/12/28 07:36:22;;;;;;;3.63;1.60;;;10.10;63.90;;;;;;5091106;28;20386;-73
2022/12/28 07:38:48;;;;;;;3.50;1.70;;;10.20;64.20;;;;;;5090887;28;20439;-75
2022/12/28 07:41:25;;;;;;;4.22;2.30;;;10.10;64.90;;;;;;5089159;28;20438;-72
2022/12/28 07:43:51;;;;;;;3.00;1.50;;;10.10;65.20;;;;;;5091328;28;20381;-72
2022/12/28 07:46:25;;;;;;;5.40;1.67;;;10.10;65.70;;;;;;5092589;28;20747;-71
2022/12/28 07:48:52;;;;;;;6.88;1.80;;;10.10;66.10;;;;;;5094289;28;20382;-71
2022/12/28 07:51:22;;;;;;;5.50;1.50;;;10.10;66.00;;;;;;5092328;28;20484;-72
2022/12/28 07:53:49;;;;;;;3.97;1.60;;;10.00;66.70;;;;;;5094509;28;20855;-72
2022/12/28 07:56:16;;;;;;;3.03;1.40;;;10.00;66.60;;;;;;5094233;28;20386;-73
2022/12/28 07:58:41;;;;;;;4.63;1.80;;;10.10;65.60;;;;;;5093975;28;20470;-71
2022/12/28 08:01:07;;;;;;;3.75;1.42;;;10.10;64.90;;;;;;5093800;28;20796;-73
2022/12/28 08:03:33;;;;;;;2.67;1.55;;;10.10;64.80;;;;;;5094259;28;20378;-72
2022/12/28 08:06:06;;;;;;;3.28;1.40;;;10.10;65.00;;;;;;5094658;28;20587;-73
2022/12/28 08:08:47;;;;;;;4.45;2.00;;;10.10;65.30;;;;;;5093942;28;20381;-73
2022/12/28 08:11:16;;;;;;;2.63;1.50;;;10.20;63.90;;;;;;5093363;28;20378;-74
2022/12/28 08:13:44;;;;;;;4.00;1.20;;;10.10;64.60;;;;;;5094380;28;20867;-73
2022/12/28 08:16:11;;;;;;;1.40;1.10;;;10.30;63.60;;;;;;5094038;28;20552;-74
2022/12/28 08:18:37;;;;;;;2.67;1.50;;;10.30;62.90;;;;;;5093938;28;20397;-73
2022/12/28 08:21:05;;;;;;;4.00;1.40;;;10.20;63.80;;;;;;5093174;28;20382;-73
2022/12/28 08:23:32;;;;;;;2.42;1.20;;;10.30;63.70;;;;;;5093747;28;20397;-73
2022/12/28 08:26:09;;;;;;;2.30;1.33;;;10.30;62.60;;;;;;5094241;28;20386;-72
2022/12/28 08:28:35;;;;;;;5.60;1.55;;;10.40;61.50;;;;;;5093661;28;20398;-73
2022/12/28 08:31:10;;;;;;;3.67;1.40;;;10.40;61.20;;;;;;5094021;28;20394;-74
2022/12/28 08:33:36;;;;;;;1.80;1.20;;;10.40;61.30;;;;;;5094012;28;20439;-74
2022/12/28 08:36:02;;;;;;;6.90;1.60;;;10.40;61.70;;;;;;5093484;28;20378;-73
2022/12/28 08:38:28;;;;;;;4.72;1.42;;;10.40;61.80;;;;;;5093191;28;20382;-74
2022/12/28 08:40:58;;;;;;;1.83;1.30;;;10.50;60.80;;;;;;5092833;28;20405;-74
2022/12/28 08:43:25;;;;;;;2.60;1.30;;;10.60;60.20;;;;;;5093654;28;20384;-73
2022/12/28 08:46:01;;;;;;;3.97;1.40;;;10.60;59.80;;;;;;5093688;28;20382;-73
2022/12/28 08:48:27;;;;;;;1.88;1.05;;;10.60;59.60;;;;;;5093027;28;20406;-74
2022/12/28 08:50:53;;;;;;;5.70;1.70;;;10.60;59.70;;;;;;5092650;28;20381;-72
2022/12/28 08:53:20;;;;;;;2.30;1.30;;;10.70;59.60;;;;;;5093166;28;20881;-72
2022/12/28 08:55:47;;;;;;;5.50;1.50;;;10.70;58.90;;;;;;5093041;28;20382;-74
2022/12/28 08:58:12;;;;;;;3.70;1.40;;;10.70;58.80;;;;;;5091880;28;20377;-74
2022/12/28 09:00:38;;;;;;;4.10;1.60;;;10.70;58.50;;;;;;5085383;28;20386;-74
2022/12/28 09:03:04;;;;;;;3.53;1.53;;;10.80;58.30;;;;;;5083913;28;20931;-74
2022/12/28 09:05:29;;;;;;;1.53;1.00;;;10.90;58.20;;;;;;5072758;28;20380;-73
2022/12/28 09:07:55;;;;;;;3.90;1.43;;;10.90;57.70;;;;;;5072553;28;20396;-72
2022/12/28 09:10:20;;;;;;;5.55;1.70;;;10.90;57.00;;;;;;5082433;28;20750;-73
2022/12/28 09:12:46;;;;;;;4.00;1.40;;;10.90;57.60;;;;;;5072486;28;20434;-72
2022/12/28 09:15:11;;;;;;;2.92;1.17;;;10.90;57.50;;;;;;5071190;28;20468;-72
2022/12/28 09:17:37;;;;;;;3.33;1.60;;;10.90;56.80;;;;;;5083051;28;20390;-72
2022/12/28 09:20:03;;;;;;;4.23;1.50;;;10.90;57.10;;;;;;5077889;28;20493;-73
2022/12/28 09:22:30;;;;;;;3.33;1.40;;;11.00;57.00;;;;;;5071811;28;20387;-73
2022/12/28 09:24:55;;;;;;;2.22;1.20;;;11.00;57.20;;;;;;5072523;28;20395;-72
2022/12/28 09:27:21;;;;;;;5.05;1.35;;;11.10;56.00;;;;;;5072108;28;20392;-73
2022/12/28 09:29:47;;;;;;;1.50;1.30;;;11.10;55.20;;;;;;5072415;28;20875;-73
2022/12/28 09:32:12;;;;;;;6.03;1.52;;;11.20;55.00;;;;;;5071381;28;20440;-72
2022/12/28 09:34:38;;;;;;;4.28;1.10;;;11.20;54.30;;;;;;5072038;28;20388;-73
2022/12/28 09:37:05;;;;;;;4.40;1.20;;;11.20;55.30;;;;;;5072095;28;20848;-71
2022/12/28 09:39:30;;;;;;;5.60;1.70;;;11.30;54.10;;;;;;5070674;28;20928;-73
2022/12/28 09:42:16;;;;;;;4.67;1.30;;;11.20;53.40;;;;;;5072594;28;20387;-72
2022/12/28 09:44:54;;;;;;;3.58;1.38;;;11.20;54.30;;;;;;5072028;28;20426;-74
2022/12/28 09:47:43;;;;;;;4.20;1.40;;;11.30;53.70;;;;;;5071698;28;20713;-71
2022/12/28 09:50:15;;;;;;;5.27;1.50;;;11.30;53.00;;;;;;5087535;28;20811;-72
2022/12/28 09:53:05;;;;;;;3.50;1.48;;;11.30;52.80;;;;;;5112943;28;20384;-73
2022/12/28 09:55:33;;;;;;;2.90;1.40;;;11.40;52.80;;;;;;5094729;28;20389;-73
2022/12/28 09:57:59;;;;;;;3.05;1.25;;;11.40;52.20;;;;;;5096594;28;20390;-72
2022/12/28 10:00:47;;;;;;;2.90;1.50;;;11.40;51.80;;;;;;5091247;28;20417;-72
2022/12/28 10:03:22;;;;;;;4.68;1.40;;;11.40;51.80;;;;;;5077925;28;20869;-72
2022/12/28 10:05:49;;;;;;;4.55;1.30;;;11.40;51.80;;;;;;5083220;28;20466;-72
2022/12/28 10:08:19;;;;;;;2.20;1.20;;;11.50;52.20;;;;;;5095065;28;20874;-72
2022/12/28 10:10:45;;;;;;;3.47;1.38;;;11.50;50.80;;;;;;5092881;28;20404;-73
2022/12/28 10:13:21;;;;;;;2.50;1.10;;;11.50;50.50;;;;;;5091619;28;20915;-72
2022/12/28 10:15:47;;;;;;;6.28;1.35;;;11.60;50.20;;;;;;5091533;28;20871;-73
2022/12/28 10:18:14;;;;;;;3.53;1.27;;;11.60;49.90;;;;;;5091918;28;20447;-73
2022/12/28 10:20:43;;;;;;;3.40;1.20;;;11.70;49.80;;;;;;5090459;28;20400;-74
2022/12/28 10:23:15;;;;;;;3.75;1.58;;;11.70;49.40;;;;;;5086474;28;20420;-72
2022/12/28 10:25:40;;;;;;;2.20;1.20;;;11.70;49.90;;;;;;5073165;28;20468;-72
2022/12/28 10:28:09;;;;;;;3.00;1.30;;;11.70;49.30;;;;;;5069428;28;20621;-73
2022/12/28 10:30:47;;;;;;;4.75;1.30;;;11.80;49.30;;;;;;5080930;28;20397;-74
2022/12/28 10:33:19;;;;;;;3.95;1.30;;;11.80;48.50;;;;;;5089130;28;20408;-72
2022/12/28 10:35:50;;;;;;;2.60;1.33;;;11.80;49.20;;;;;;5088175;28;20451;-73
2022/12/28 10:38:22;;;;;;;3.20;1.10;;;11.80;48.30;;;;;;5073549;28;20399;-72
2022/12/28 10:40:55;;;;;;;5.38;1.42;;;11.90;47.90;;;;;;5067854;28;20470;-74
2022/12/28 10:43:20;;;;;;;4.03;1.35;;;12.00;47.80;;;;;;5078353;28;20805;-73
2022/12/28 10:45:50;;;;;;;4.55;1.73;;;12.00;47.90;;;;;;5075617;28;20380;-73
2022/12/28 10:48:23;;;;;;;3.97;1.37;;;12.10;48.00;;;;;;5073223;28;20757;-78
2022/12/28 10:50:50;;;;;;;2.10;1.50;;;12.20;47.00;;;;;;5080544;28;20419;-81
2022/12/28 10:53:39;;;;;;;2.55;1.48;;;12.20;45.90;;;;;;5079726;28;20472;-78
2022/12/28 10:56:13;;;;;;;6.97;1.50;;;12.30;45.60;;;;;;5081223;28;20935;-79
2022/12/28 10:58:41;;;;;;;4.80;1.30;;;12.20;46.20;;;;;;5078839;28;20410;-79
2022/12/28 11:01:13;;;;;;;3.75;1.85;;;12.20;45.90;;;;;;5076416;28;20391;-73
2022/12/28 11:04:03;;;;;;;3.90;1.60;;;12.20;46.50;;;;;;5081955;28;20400;-74
2022/12/28 11:06:50;;;;;;;3.38;1.50;;;12.10;46.80;;;;;;5060292;28;20392;-75
2022/12/28 11:09:22;;;;;;;5.47;1.67;;;12.10;46.20;;;;;;5081217;28;20493;-74
2022/12/28 11:11:51;;;;;;;3.47;1.55;;;12.10;46.50;;;;;;5092189;28;20432;-74
2022/12/28 11:14:30;;;;;;;6.97;1.60;;;12.10;47.20;;;;;;5095311;28;20530;-76
2022/12/28 11:16:55;;;;;;;4.13;1.50;;;12.00;47.30;;;;;;5093126;28;20387;-74
2022/12/28 11:19:22;;;;;;;4.35;1.48;;;12.00;47.10;;;;;;5090098;28;20920;-74
2022/12/28 11:21:48;;;;;;;5.05;1.50;;;12.00;47.50;;;;;;5098511;28;20378;-74
2022/12/28 11:24:16;;;;;;;3.38;1.42;;;12.00;48.00;;;;;;5084085;28;20399;-75
2022/12/28 11:26:46;;;;;;;5.55;1.70;;;12.00;48.00;;;;;;5085244;28;20817;-72
2022/12/28 11:29:14;;;;;;;4.85;1.40;;;12.00;47.50;;;;;;5093823;28;20385;-72
2022/12/28 11:31:48;;;;;;;5.85;1.42;;;12.00;47.50;;;;;;5076531;28;20391;-72
2022/12/28 11:34:18;;;;;;;3.30;1.67;;;11.90;47.20;;;;;;5076538;28;20376;-72
2022/12/28 11:36:44;;;;;;;4.97;1.52;;;12.00;47.40;;;;;;5076483;28;20380;-73
2022/12/28 11:39:30;;;;;;;6.17;2.10;;;11.90;47.80;;;;;;5076512;28;20832;-72
2022/12/28 11:41:57;;;;;;;3.63;1.50;;;11.90;48.30;;;;;;5074932;28;20442;-72
2022/12/28 11:44:47;;;;;;;5.88;1.70;;;12.00;47.70;;;;;;5078908;28;20392;-72
2022/12/28 11:47:15;;;;;;;6.72;1.60;;;12.00;48.00;;;;;;5077590;28;20441;-73
2022/12/28 11:49:42;;;;;;;4.93;2.00;;;11.90;47.50;;;;;;5079757;28;20438;-72
2022/12/28 11:52:13;;;;;;;2.80;1.80;;;11.90;47.70;;;;;;5076164;28;20395;-72
2022/12/28 11:54:52;;;;;;;4.28;1.73;;;11.90;48.30;;;;;;5077267;28;20383;-74
2022/12/28 11:57:39;;;;;;;6.00;1.83;;;11.80;48.80;;;;;;5075223;28;20797;-73
2022/12/28 12:00:19;;;;;;;3.47;1.80;;;11.80;49.20;;;;;;5076201;28;20414;-72
2022/12/28 12:02:49;;;;;;;5.75;2.40;;;11.90;46.80;;;;;;5081490;28;20516;-73
2022/12/28 12:05:36;;;;;;;4.95;1.80;;;11.90;47.20;;;;;;5083027;28;20384;-73
2022/12/28 12:08:22;;;;;;;4.90;1.60;;;11.90;46.50;;;;;;5076092;28;20380;-72
2022/12/28 12:10:49;;;;;;;4.43;1.90;;;11.90;45.40;;;;;;5076073;28;20860;-73
2022/12/28 12:13:26;;;;;;;3.08;1.60;;;11.90;45.00;;;;;;5075187;28;20419;-72
2022/12/28 12:16:05;;;;;;;3.53;1.63;;;11.80;44.80;;;;;;5075610;28;20426;-71
2022/12/28 12:18:45;;;;;;;3.92;2.00;;;11.90;44.90;;;;;;5075554;28;20413;-73
2022/12/28 12:21:33;;;;;;;2.60;1.50;;;11.80;46.10;;;;;;5073915;28;20501;-71
2022/12/28 12:24:25;;;;;;;4.72;1.50;;;11.80;44.10;;;;;;5074184;28;20390;-72
2022/12/28 12:27:14;;;;;;;4.97;1.63;;;11.80;44.90;;;;;;5073682;28;20384;-73
2022/12/28 12:29:43;;;;;;;4.70;2.08;;;11.90;43.70;;;;;;5069927;28;20399;-72
2022/12/28 12:32:25;;;;;;;4.13;1.60;;;11.90;43.20;;;;;;5076638;28;20406;-72
2022/12/28 12:34:59;;;;;;;4.20;1.60;;;11.90;43.00;;;;;;5077692;28;20484;-74
2022/12/28 12:38:03;;;;;;;8.43;2.20;;;11.90;42.50;;;;;;5072604;28;20757;-71
2022/12/28 12:40:41;;;;;;;6.32;1.70;;;11.80;42.90;;;;;;5032028;28;20423;-73
2022/12/28 12:43:21;;;;;;;3.15;1.50;;;11.80;42.70;;;;;;5068007;28;20487;-73
2022/12/28 12:45:58;;;;;;;5.00;1.90;;;11.70;43.20;;;;;;5073096;28;20408;-73
2022/12/28 12:48:53;;;;;;;4.82;1.85;;;11.70;41.90;;;;;;5073270;28;20574;-73
2022/12/28 12:51:35;;;;;;;2.63;1.40;;;11.70;41.70;;;;;;5073092;28;20388;-72
2022/12/28 12:54:26;;;;;;;4.80;1.90;;;11.80;41.50;;;;;;5074652;28;20383;-72
2022/12/28 12:57:02;;;;;;;3.80;1.80;;;11.70;42.00;;;;;;5075815;28;20384;-72
2022/12/28 12:59:39;;;;;;;4.27;1.60;;;11.70;42.30;;;;;;5075154;28;20443;-72
2022/12/28 13:02:11;;;;;;;8.50;1.80;;;11.70;42.00;;;;;;5075537;28;20907;-72
2022/12/28 13:04:39;;;;;;;4.53;1.65;;;11.70;41.80;;;;;;5077262;28;20662;-72
2022/12/28 13:07:15;;;;;;;4.15;1.45;;;11.70;41.60;;;;;;5074969;28;20714;-74
2022/12/28 13:09:42;;;;;;;3.83;2.00;;;11.60;41.60;;;;;;5072322;28;20455;-71
2022/12/28 13:12:15;;;;;;;4.75;2.10;;;11.60;41.30;;;;;;5070816;28;20903;-71
2022/12/28 13:14:45;;;;;;;4.72;1.88;;;11.70;40.60;;;;;;5072832;28;20706;-72
2022/12/28 13:17:19;;;;;;;5.45;1.80;;;11.70;40.10;;;;;;5072840;28;20448;-73
2022/12/28 13:19:45;;;;;;;3.20;1.55;;;11.70;39.60;;;;;;5072825;28;20529;-73
2022/12/28 13:22:31;;;;;;;3.72;1.70;;;11.60;39.90;;;;;;5072385;28;20403;-74
2022/12/28 13:25:00;;;;;;;4.20;1.95;;;11.60;40.50;;;;;;5072121;28;20734;-73
2022/12/28 13:27:33;;;;;;;6.88;2.40;;;11.50;40.70;;;;;;5072680;28;20383;-74
2022/12/28 13:30:00;;;;;;;5.78;2.10;;;11.50;41.10;;;;;;5079280;28;20387;-74
2022/12/28 13:32:33;;;;;;;5.53;1.80;;;11.40;41.50;;;;;;5082594;28;20426;-73
2022/12/28 13:35:14;;;;;;;4.00;1.83;;;11.40;41.80;;;;;;5081044;28;20812;-75